sensor_id;sensor_type;location;lat;lon;timestamp;P1;durP1;ratioP1;P2;durP2;ratioP2
11931;SDS011;6025;51.368;6.788;2022-10-31T00:01:21;9.77;;;6.10;;
11931;SDS011;6025;51.368;6.788;2022-10-31T00:06:14;9.25;;;5.97;;
11931;SDS011;6025;51.368;6.788;2022-10-31T00:11:08;12.43;;;6.45;;
11931;SDS011;6025;51.368;6.788;2022-10-31T00:16:01;11.80;;;5.85;;
11931;SDS011;6025;51.368;6.788;2022-10-31T00:20:58;15.02;;;5.75;;
11931;SDS011;6025;51.368;6.788;2022-10-31T00:25:50;10.80;;;5.95;;
11931;SDS011;6025;51.368;6.788;2022-10-31T00:30:41;10.98;;;5.38;;
11931;SDS011;6025;51.368;6.788;2022-10-31T00:35:34;9.02;;;5.55;;
11931;SDS011;6025;51.368;6.788;2022-10-31T00:40:26;14.02;;;5.43;;
11931;SDS011;6025;51.368;6.788;2022-10-31T00:45:17;12.75;;;5.55;;
11931;SDS011;6025;51.368;6.788;2022-10-31T00:50:09;12.63;;;6.35;;
11931;SDS011;6025;51.368;6.788;2022-10-31T00:55:02;11.02;;;6.07;;
11931;SDS011;6025;51.368;6.788;2022-10-31T00:59:54;17.98;;;6.10;;
11931;SDS011;6025;51.368;6.788;2022-10-31T01:04:45;11.55;;;6.28;;
11931;SDS011;6025;51.368;6.788;2022-10-31T01:09:37;13.15;;;5.65;;
11931;SDS011;6025;51.368;6.788;2022-10-31T01:14:30;11.15;;;5.55;;
11931;SDS011;6025;51.368;6.788;2022-10-31T01:19:21;11.93;;;6.18;;
11931;SDS011;6025;51.368;6.788;2022-10-31T01:24:13;13.63;;;5.28;;
11931;SDS011;6025;51.368;6.788;2022-10-31T01:29:05;13.30;;;6.53;;
11931;SDS011;6025;51.368;6.788;2022-10-31T01:33:59;10.70;;;5.65;;
11931;SDS011;6025;51.368;6.788;2022-10-31T01:38:51;10.70;;;5.93;;
11931;SDS011;6025;51.368;6.788;2022-10-31T01:43:46;11.00;;;5.53;;
11931;SDS011;6025;51.368;6.788;2022-10-31T01:48:43;13.93;;;6.07;;
11931;SDS011;6025;51.368;6.788;2022-10-31T01:53:36;11.77;;;5.43;;
11931;SDS011;6025;51.368;6.788;2022-10-31T01:58:28;11.30;;;5.63;;
11931;SDS011;6025;51.368;6.788;2022-10-31T02:03:21;11.52;;;6.63;;
11931;SDS011;6025;51.368;6.788;2022-10-31T02:08:14;10.35;;;6.07;;
11931;SDS011;6025;51.368;6.788;2022-10-31T02:13:10;10.13;;;5.68;;
11931;SDS011;6025;51.368;6.788;2022-10-31T02:18:03;12.32;;;5.82;;
11931;SDS011;6025;51.368;6.788;2022-10-31T02:23:15;9.88;;;6.00;;
11931;SDS011;6025;51.368;6.788;2022-10-31T02:28:28;11.90;;;6.05;;
11931;SDS011;6025;51.368;6.788;2022-10-31T02:33:41;12.00;;;5.68;;
11931;SDS011;6025;51.368;6.788;2022-10-31T02:38:38;12.70;;;6.60;;
11931;SDS011;6025;51.368;6.788;2022-10-31T02:43:35;17.55;;;6.82;;
11931;SDS011;6025;51.368;6.788;2022-10-31T02:48:32;10.98;;;5.95;;
11931;SDS011;6025;51.368;6.788;2022-10-31T02:53:30;10.93;;;6.25;;
11931;SDS011;6025;51.368;6.788;2022-10-31T02:58:24;13.70;;;6.80;;
11931;SDS011;6025;51.368;6.788;2022-10-31T03:03:18;12.25;;;6.28;;
11931;SDS011;6025;51.368;6.788;2022-10-31T03:08:12;10.65;;;6.05;;
11931;SDS011;6025;51.368;6.788;2022-10-31T03:13:08;9.32;;;5.68;;
11931;SDS011;6025;51.368;6.788;2022-10-31T03:18:02;10.75;;;5.53;;
11931;SDS011;6025;51.368;6.788;2022-10-31T03:22:55;13.95;;;5.78;;
11931;SDS011;6025;51.368;6.788;2022-10-31T03:27:48;10.38;;;5.30;;
11931;SDS011;6025;51.368;6.788;2022-10-31T03:32:42;10.43;;;5.70;;
11931;SDS011;6025;51.368;6.788;2022-10-31T03:37:37;12.52;;;5.97;;
11931;SDS011;6025;51.368;6.788;2022-10-31T03:42:31;10.82;;;5.90;;
11931;SDS011;6025;51.368;6.788;2022-10-31T03:47:24;10.18;;;5.50;;
11931;SDS011;6025;51.368;6.788;2022-10-31T03:52:19;10.70;;;5.80;;
11931;SDS011;6025;51.368;6.788;2022-10-31T03:57:14;11.48;;;5.20;;
11931;SDS011;6025;51.368;6.788;2022-10-31T04:02:10;11.98;;;5.28;;
11931;SDS011;6025;51.368;6.788;2022-10-31T04:07:04;11.40;;;5.75;;
11931;SDS011;6025;51.368;6.788;2022-10-31T04:11:58;10.40;;;6.22;;
11931;SDS011;6025;51.368;6.788;2022-10-31T04:16:52;9.90;;;5.80;;
11931;SDS011;6025;51.368;6.788;2022-10-31T04:21:43;13.00;;;6.38;;
11931;SDS011;6025;51.368;6.788;2022-10-31T04:26:35;12.07;;;6.22;;
11931;SDS011;6025;51.368;6.788;2022-10-31T04:31:28;11.23;;;6.10;;
11931;SDS011;6025;51.368;6.788;2022-10-31T04:36:19;11.85;;;6.07;;
11931;SDS011;6025;51.368;6.788;2022-10-31T04:41:11;10.48;;;5.68;;
11931;SDS011;6025;51.368;6.788;2022-10-31T04:46:03;9.55;;;5.30;;
11931;SDS011;6025;51.368;6.788;2022-10-31T04:50:59;7.88;;;5.07;;
11931;SDS011;6025;51.368;6.788;2022-10-31T04:55:51;7.78;;;5.20;;
11931;SDS011;6025;51.368;6.788;2022-10-31T05:00:42;10.65;;;5.55;;
11931;SDS011;6025;51.368;6.788;2022-10-31T05:05:34;8.43;;;5.55;;
11931;SDS011;6025;51.368;6.788;2022-10-31T05:10:28;9.57;;;5.10;;
11931;SDS011;6025;51.368;6.788;2022-10-31T05:15:21;12.27;;;5.32;;
11931;SDS011;6025;51.368;6.788;2022-10-31T05:20:14;13.23;;;5.55;;
11931;SDS011;6025;51.368;6.788;2022-10-31T05:25:06;10.43;;;5.68;;
11931;SDS011;6025;51.368;6.788;2022-10-31T05:30:00;14.57;;;6.20;;
11931;SDS011;6025;51.368;6.788;2022-10-31T05:34:51;9.77;;;4.93;;
11931;SDS011;6025;51.368;6.788;2022-10-31T05:39:43;9.77;;;5.40;;
11931;SDS011;6025;51.368;6.788;2022-10-31T05:44:34;12.25;;;6.07;;
11931;SDS011;6025;51.368;6.788;2022-10-31T05:49:27;11.25;;;6.10;;
11931;SDS011;6025;51.368;6.788;2022-10-31T05:54:19;12.18;;;6.38;;
11931;SDS011;6025;51.368;6.788;2022-10-31T05:59:10;11.80;;;6.65;;
11931;SDS011;6025;51.368;6.788;2022-10-31T06:04:02;10.27;;;5.80;;
11931;SDS011;6025;51.368;6.788;2022-10-31T06:08:54;9.52;;;6.07;;
11931;SDS011;6025;51.368;6.788;2022-10-31T06:13:46;9.07;;;5.43;;
11931;SDS011;6025;51.368;6.788;2022-10-31T06:18:38;10.20;;;6.03;;
11931;SDS011;6025;51.368;6.788;2022-10-31T06:23:29;9.52;;;5.50;;
11931;SDS011;6025;51.368;6.788;2022-10-31T06:28:22;12.48;;;5.32;;
11931;SDS011;6025;51.368;6.788;2022-10-31T06:33:13;12.30;;;5.53;;
11931;SDS011;6025;51.368;6.788;2022-10-31T06:38:05;9.45;;;6.00;;
11931;SDS011;6025;51.368;6.788;2022-10-31T06:42:57;9.85;;;5.90;;
11931;SDS011;6025;51.368;6.788;2022-10-31T06:47:51;14.00;;;5.40;;
11931;SDS011;6025;51.368;6.788;2022-10-31T06:52:43;10.63;;;6.13;;
11931;SDS011;6025;51.368;6.788;2022-10-31T06:57:34;12.20;;;6.18;;
11931;SDS011;6025;51.368;6.788;2022-10-31T07:02:26;11.38;;;6.85;;
11931;SDS011;6025;51.368;6.788;2022-10-31T07:07:19;7.95;;;6.00;;
11931;SDS011;6025;51.368;6.788;2022-10-31T07:12:11;11.80;;;6.28;;
11931;SDS011;6025;51.368;6.788;2022-10-31T07:17:02;12.02;;;6.85;;
11931;SDS011;6025;51.368;6.788;2022-10-31T07:21:54;11.77;;;6.28;;
11931;SDS011;6025;51.368;6.788;2022-10-31T07:26:47;10.27;;;5.78;;
11931;SDS011;6025;51.368;6.788;2022-10-31T07:31:39;10.43;;;6.40;;
11931;SDS011;6025;51.368;6.788;2022-10-31T07:36:30;13.52;;;6.97;;
11931;SDS011;6025;51.368;6.788;2022-10-31T07:41:22;9.55;;;5.60;;
11931;SDS011;6025;51.368;6.788;2022-10-31T07:46:15;10.90;;;6.32;;
11931;SDS011;6025;51.368;6.788;2022-10-31T07:51:06;12.07;;;5.97;;
11931;SDS011;6025;51.368;6.788;2022-10-31T07:55:58;13.75;;;6.30;;
11931;SDS011;6025;51.368;6.788;2022-10-31T08:00:49;12.10;;;6.32;;
11931;SDS011;6025;51.368;6.788;2022-10-31T08:05:42;9.55;;;6.00;;
11931;SDS011;6025;51.368;6.788;2022-10-31T08:10:35;9.93;;;5.85;;
11931;SDS011;6025;51.368;6.788;2022-10-31T08:15:27;9.70;;;5.80;;
11931;SDS011;6025;51.368;6.788;2022-10-31T08:20:19;10.50;;;6.30;;
11931;SDS011;6025;51.368;6.788;2022-10-31T08:25:12;10.02;;;6.22;;
11931;SDS011;6025;51.368;6.788;2022-10-31T08:30:04;11.88;;;6.30;;
11931;SDS011;6025;51.368;6.788;2022-10-31T08:34:57;11.43;;;7.22;;
11931;SDS011;6025;51.368;6.788;2022-10-31T08:39:48;8.93;;;6.07;;
11931;SDS011;6025;51.368;6.788;2022-10-31T08:44:41;8.38;;;6.63;;
11931;SDS011;6025;51.368;6.788;2022-10-31T08:49:33;9.05;;;5.88;;
11931;SDS011;6025;51.368;6.788;2022-10-31T08:54:24;9.82;;;5.43;;
11931;SDS011;6025;51.368;6.788;2022-10-31T08:59:16;13.05;;;7.63;;
11931;SDS011;6025;51.368;6.788;2022-10-31T09:04:09;13.80;;;7.03;;
11931;SDS011;6025;51.368;6.788;2022-10-31T09:09:00;15.15;;;9.45;;
11931;SDS011;6025;51.368;6.788;2022-10-31T09:13:52;19.60;;;11.38;;
11931;SDS011;6025;51.368;6.788;2022-10-31T09:18:43;18.42;;;10.25;;
11931;SDS011;6025;51.368;6.788;2022-10-31T09:23:36;16.13;;;9.50;;
11931;SDS011;6025;51.368;6.788;2022-10-31T09:28:28;17.20;;;9.30;;
11931;SDS011;6025;51.368;6.788;2022-10-31T09:33:20;18.98;;;9.10;;
11931;SDS011;6025;51.368;6.788;2022-10-31T09:38:12;18.17;;;9.80;;
11931;SDS011;6025;51.368;6.788;2022-10-31T09:43:11;14.00;;;9.38;;
11931;SDS011;6025;51.368;6.788;2022-10-31T09:48:08;17.67;;;9.30;;
11931;SDS011;6025;51.368;6.788;2022-10-31T09:53:05;18.45;;;10.15;;
11931;SDS011;6025;51.368;6.788;2022-10-31T09:58:01;17.00;;;9.60;;
11931;SDS011;6025;51.368;6.788;2022-10-31T10:02:56;18.92;;;9.95;;
11931;SDS011;6025;51.368;6.788;2022-10-31T10:07:51;15.75;;;10.15;;
11931;SDS011;6025;51.368;6.788;2022-10-31T10:12:59;16.98;;;10.48;;
11931;SDS011;6025;51.368;6.788;2022-10-31T10:17:59;21.23;;;10.13;;
11931;SDS011;6025;51.368;6.788;2022-10-31T10:22:55;16.50;;;11.27;;
11931;SDS011;6025;51.368;6.788;2022-10-31T10:27:57;20.95;;;11.50;;
11931;SDS011;6025;51.368;6.788;2022-10-31T10:32:54;22.48;;;12.20;;
11931;SDS011;6025;51.368;6.788;2022-10-31T10:37:50;27.55;;;12.68;;
11931;SDS011;6025;51.368;6.788;2022-10-31T10:42:44;23.90;;;12.10;;
11931;SDS011;6025;51.368;6.788;2022-10-31T10:47:55;23.50;;;12.20;;
11931;SDS011;6025;51.368;6.788;2022-10-31T10:52:54;22.30;;;12.38;;
11931;SDS011;6025;51.368;6.788;2022-10-31T10:57:53;22.98;;;12.48;;
11931;SDS011;6025;51.368;6.788;2022-10-31T11:02:47;25.20;;;12.20;;
11931;SDS011;6025;51.368;6.788;2022-10-31T11:07:40;21.20;;;11.90;;
11931;SDS011;6025;51.368;6.788;2022-10-31T11:12:32;25.75;;;12.75;;
11931;SDS011;6025;51.368;6.788;2022-10-31T11:17:26;23.45;;;11.75;;
11931;SDS011;6025;51.368;6.788;2022-10-31T11:22:19;23.08;;;11.88;;
11931;SDS011;6025;51.368;6.788;2022-10-31T11:27:14;21.85;;;12.13;;
11931;SDS011;6025;51.368;6.788;2022-10-31T11:32:08;16.27;;;11.25;;
11931;SDS011;6025;51.368;6.788;2022-10-31T11:37:09;21.25;;;11.30;;
11931;SDS011;6025;51.368;6.788;2022-10-31T11:42:04;19.33;;;10.27;;
11931;SDS011;6025;51.368;6.788;2022-10-31T11:46:57;16.90;;;9.85;;
11931;SDS011;6025;51.368;6.788;2022-10-31T11:51:51;17.02;;;9.98;;
11931;SDS011;6025;51.368;6.788;2022-10-31T11:56:44;13.80;;;8.57;;
11931;SDS011;6025;51.368;6.788;2022-10-31T12:01:39;15.38;;;9.38;;
11931;SDS011;6025;51.368;6.788;2022-10-31T12:06:33;15.60;;;9.10;;
11931;SDS011;6025;51.368;6.788;2022-10-31T12:11:35;18.85;;;8.35;;
11931;SDS011;6025;51.368;6.788;2022-10-31T12:16:34;13.88;;;7.15;;
11931;SDS011;6025;51.368;6.788;2022-10-31T12:21:34;14.15;;;6.20;;
11931;SDS011;6025;51.368;6.788;2022-10-31T12:26:34;18.20;;;6.20;;
11931;SDS011;6025;51.368;6.788;2022-10-31T12:31:37;12.95;;;6.13;;
11931;SDS011;6025;51.368;6.788;2022-10-31T12:36:38;12.82;;;5.97;;
11931;SDS011;6025;51.368;6.788;2022-10-31T12:41:51;14.07;;;4.70;;
11931;SDS011;6025;51.368;6.788;2022-10-31T12:46:50;10.60;;;5.40;;
11931;SDS011;6025;51.368;6.788;2022-10-31T12:51:50;12.48;;;4.90;;
11931;SDS011;6025;51.368;6.788;2022-10-31T12:56:50;16.08;;;4.63;;
11931;SDS011;6025;51.368;6.788;2022-10-31T13:01:47;10.95;;;4.20;;
11931;SDS011;6025;51.368;6.788;2022-10-31T13:06:42;9.18;;;4.25;;
11931;SDS011;6025;51.368;6.788;2022-10-31T13:11:40;12.38;;;4.28;;
11931;SDS011;6025;51.368;6.788;2022-10-31T13:16:34;11.77;;;4.22;;
11931;SDS011;6025;51.368;6.788;2022-10-31T13:21:29;10.98;;;4.57;;
11931;SDS011;6025;51.368;6.788;2022-10-31T13:26:26;9.35;;;4.18;;
11931;SDS011;6025;51.368;6.788;2022-10-31T13:31:28;9.93;;;3.67;;
11931;SDS011;6025;51.368;6.788;2022-10-31T13:36:21;13.82;;;3.80;;
11931;SDS011;6025;51.368;6.788;2022-10-31T13:41:20;9.27;;;3.47;;
11931;SDS011;6025;51.368;6.788;2022-10-31T13:46:21;8.70;;;3.90;;
11931;SDS011;6025;51.368;6.788;2022-10-31T13:51:23;9.45;;;3.90;;
11931;SDS011;6025;51.368;6.788;2022-10-31T13:56:19;9.55;;;3.90;;
11931;SDS011;6025;51.368;6.788;2022-10-31T14:01:15;9.88;;;3.60;;
11931;SDS011;6025;51.368;6.788;2022-10-31T14:06:08;8.05;;;3.72;;
11931;SDS011;6025;51.368;6.788;2022-10-31T14:11:02;10.25;;;3.28;;
11931;SDS011;6025;51.368;6.788;2022-10-31T14:15:55;8.70;;;3.80;;
11931;SDS011;6025;51.368;6.788;2022-10-31T14:20:47;12.18;;;3.80;;
11931;SDS011;6025;51.368;6.788;2022-10-31T14:25:39;11.18;;;3.83;;
11931;SDS011;6025;51.368;6.788;2022-10-31T14:30:32;7.85;;;3.42;;
11931;SDS011;6025;51.368;6.788;2022-10-31T14:35:24;13.88;;;3.60;;
11931;SDS011;6025;51.368;6.788;2022-10-31T14:40:23;8.82;;;3.33;;
11931;SDS011;6025;51.368;6.788;2022-10-31T14:45:21;10.77;;;3.70;;
11931;SDS011;6025;51.368;6.788;2022-10-31T14:50:23;12.00;;;3.97;;
11931;SDS011;6025;51.368;6.788;2022-10-31T14:55:17;7.68;;;3.25;;
11931;SDS011;6025;51.368;6.788;2022-10-31T15:00:14;8.95;;;3.58;;
11931;SDS011;6025;51.368;6.788;2022-10-31T15:05:08;9.35;;;3.45;;
11931;SDS011;6025;51.368;6.788;2022-10-31T15:10:02;9.23;;;3.05;;
11931;SDS011;6025;51.368;6.788;2022-10-31T15:14:56;10.40;;;3.72;;
11931;SDS011;6025;51.368;6.788;2022-10-31T15:19:48;6.05;;;3.10;;
11931;SDS011;6025;51.368;6.788;2022-10-31T15:24:40;11.48;;;3.75;;
11931;SDS011;6025;51.368;6.788;2022-10-31T15:29:34;8.13;;;3.83;;
11931;SDS011;6025;51.368;6.788;2022-10-31T15:34:26;11.25;;;3.97;;
11931;SDS011;6025;51.368;6.788;2022-10-31T15:39:21;8.23;;;3.88;;
11931;SDS011;6025;51.368;6.788;2022-10-31T15:44:13;9.23;;;3.42;;
11931;SDS011;6025;51.368;6.788;2022-10-31T15:49:12;8.80;;;3.67;;
11931;SDS011;6025;51.368;6.788;2022-10-31T15:54:15;11.05;;;3.60;;
11931;SDS011;6025;51.368;6.788;2022-10-31T15:59:11;9.57;;;3.75;;
11931;SDS011;6025;51.368;6.788;2022-10-31T16:04:20;9.38;;;3.85;;
11931;SDS011;6025;51.368;6.788;2022-10-31T16:09:23;12.02;;;4.18;;
11931;SDS011;6025;51.368;6.788;2022-10-31T16:14:15;6.40;;;4.10;;
11931;SDS011;6025;51.368;6.788;2022-10-31T16:19:13;18.65;;;4.55;;
11931;SDS011;6025;51.368;6.788;2022-10-31T16:24:13;11.73;;;4.03;;
11931;SDS011;6025;51.368;6.788;2022-10-31T16:29:21;9.75;;;4.28;;
11931;SDS011;6025;51.368;6.788;2022-10-31T16:34:17;11.52;;;4.25;;
11931;SDS011;6025;51.368;6.788;2022-10-31T16:39:12;11.05;;;4.45;;
11931;SDS011;6025;51.368;6.788;2022-10-31T16:44:04;7.50;;;3.83;;
11931;SDS011;6025;51.368;6.788;2022-10-31T16:48:58;7.05;;;4.13;;
11931;SDS011;6025;51.368;6.788;2022-10-31T16:53:51;10.05;;;4.00;;
11931;SDS011;6025;51.368;6.788;2022-10-31T16:58:44;8.30;;;4.07;;
11931;SDS011;6025;51.368;6.788;2022-10-31T17:03:36;8.55;;;3.92;;
11931;SDS011;6025;51.368;6.788;2022-10-31T17:08:27;6.72;;;4.50;;
11931;SDS011;6025;51.368;6.788;2022-10-31T17:13:20;13.30;;;4.35;;
11931;SDS011;6025;51.368;6.788;2022-10-31T17:18:15;10.05;;;4.03;;
11931;SDS011;6025;51.368;6.788;2022-10-31T17:23:08;12.52;;;4.18;;
11931;SDS011;6025;51.368;6.788;2022-10-31T17:28:00;9.13;;;3.38;;
11931;SDS011;6025;51.368;6.788;2022-10-31T17:32:52;8.93;;;3.67;;
11931;SDS011;6025;51.368;6.788;2022-10-31T17:37:46;7.28;;;3.33;;
11931;SDS011;6025;51.368;6.788;2022-10-31T17:42:38;9.18;;;3.00;;
11931;SDS011;6025;51.368;6.788;2022-10-31T17:47:29;6.97;;;3.03;;
11931;SDS011;6025;51.368;6.788;2022-10-31T17:52:21;13.27;;;3.30;;
11931;SDS011;6025;51.368;6.788;2022-10-31T17:57:14;8.23;;;2.70;;
11931;SDS011;6025;51.368;6.788;2022-10-31T18:02:05;9.57;;;3.55;;
11931;SDS011;6025;51.368;6.788;2022-10-31T18:06:58;10.05;;;3.20;;
11931;SDS011;6025;51.368;6.788;2022-10-31T18:11:49;11.55;;;2.80;;
11931;SDS011;6025;51.368;6.788;2022-10-31T18:16:42;14.20;;;3.20;;
11931;SDS011;6025;51.368;6.788;2022-10-31T18:21:34;11.82;;;3.28;;
11931;SDS011;6025;51.368;6.788;2022-10-31T18:26:26;8.73;;;3.00;;
11931;SDS011;6025;51.368;6.788;2022-10-31T18:31:18;7.68;;;2.60;;
11931;SDS011;6025;51.368;6.788;2022-10-31T18:36:11;9.65;;;2.80;;
11931;SDS011;6025;51.368;6.788;2022-10-31T18:41:03;7.47;;;2.75;;
11931;SDS011;6025;51.368;6.788;2022-10-31T18:45:54;6.95;;;3.53;;
11931;SDS011;6025;51.368;6.788;2022-10-31T18:50:47;9.93;;;3.05;;
11931;SDS011;6025;51.368;6.788;2022-10-31T18:55:40;7.80;;;3.08;;
11931;SDS011;6025;51.368;6.788;2022-10-31T19:00:32;6.18;;;2.70;;
11931;SDS011;6025;51.368;6.788;2022-10-31T19:05:23;9.95;;;3.25;;
11931;SDS011;6025;51.368;6.788;2022-10-31T19:10:15;6.10;;;2.92;;
11931;SDS011;6025;51.368;6.788;2022-10-31T19:15:08;12.52;;;4.97;;
11931;SDS011;6025;51.368;6.788;2022-10-31T19:20:00;11.02;;;3.47;;
11931;SDS011;6025;51.368;6.788;2022-10-31T19:24:52;5.90;;;2.80;;
11931;SDS011;6025;51.368;6.788;2022-10-31T19:29:44;7.35;;;3.20;;
11931;SDS011;6025;51.368;6.788;2022-10-31T19:34:36;12.50;;;3.00;;
11931;SDS011;6025;51.368;6.788;2022-10-31T19:39:28;7.45;;;3.05;;
11931;SDS011;6025;51.368;6.788;2022-10-31T19:44:20;5.85;;;2.85;;
11931;SDS011;6025;51.368;6.788;2022-10-31T19:49:11;11.90;;;3.30;;
11931;SDS011;6025;51.368;6.788;2022-10-31T19:54:04;9.05;;;2.97;;
11931;SDS011;6025;51.368;6.788;2022-10-31T19:58:56;8.77;;;3.35;;
11931;SDS011;6025;51.368;6.788;2022-10-31T20:03:49;6.93;;;3.10;;
11931;SDS011;6025;51.368;6.788;2022-10-31T20:08:40;7.68;;;3.08;;
11931;SDS011;6025;51.368;6.788;2022-10-31T20:13:33;8.88;;;3.10;;
11931;SDS011;6025;51.368;6.788;2022-10-31T20:18:25;8.55;;;3.22;;
11931;SDS011;6025;51.368;6.788;2022-10-31T20:23:16;7.35;;;3.00;;
11931;SDS011;6025;51.368;6.788;2022-10-31T20:28:08;6.45;;;2.90;;
11931;SDS011;6025;51.368;6.788;2022-10-31T20:33:01;10.38;;;3.33;;
11931;SDS011;6025;51.368;6.788;2022-10-31T20:37:52;7.55;;;3.13;;
11931;SDS011;6025;51.368;6.788;2022-10-31T20:42:44;9.40;;;3.30;;
11931;SDS011;6025;51.368;6.788;2022-10-31T20:47:35;7.55;;;2.90;;
11931;SDS011;6025;51.368;6.788;2022-10-31T20:52:28;7.93;;;3.38;;
11931;SDS011;6025;51.368;6.788;2022-10-31T20:57:20;7.95;;;2.92;;
11931;SDS011;6025;51.368;6.788;2022-10-31T21:02:11;6.90;;;3.50;;
11931;SDS011;6025;51.368;6.788;2022-10-31T21:07:03;8.20;;;2.88;;
11931;SDS011;6025;51.368;6.788;2022-10-31T21:11:56;8.55;;;3.25;;
11931;SDS011;6025;51.368;6.788;2022-10-31T21:16:47;7.20;;;3.03;;
11931;SDS011;6025;51.368;6.788;2022-10-31T21:21:39;12.43;;;3.70;;
11931;SDS011;6025;51.368;6.788;2022-10-31T21:26:31;8.68;;;3.20;;
11931;SDS011;6025;51.368;6.788;2022-10-31T21:31:25;9.90;;;3.00;;
11931;SDS011;6025;51.368;6.788;2022-10-31T21:36:17;8.77;;;3.30;;
11931;SDS011;6025;51.368;6.788;2022-10-31T21:41:10;6.10;;;2.60;;
11931;SDS011;6025;51.368;6.788;2022-10-31T21:46:03;10.68;;;3.05;;
11931;SDS011;6025;51.368;6.788;2022-10-31T21:50:58;6.85;;;2.80;;
11931;SDS011;6025;51.368;6.788;2022-10-31T21:55:52;9.63;;;3.08;;
11931;SDS011;6025;51.368;6.788;2022-10-31T22:00:44;10.43;;;3.45;;
11931;SDS011;6025;51.368;6.788;2022-10-31T22:05:35;8.68;;;3.08;;
11931;SDS011;6025;51.368;6.788;2022-10-31T22:10:28;10.25;;;3.25;;
11931;SDS011;6025;51.368;6.788;2022-10-31T22:15:20;8.07;;;3.38;;
11931;SDS011;6025;51.368;6.788;2022-10-31T22:20:12;8.25;;;3.50;;
11931;SDS011;6025;51.368;6.788;2022-10-31T22:25:04;7.38;;;3.00;;
11931;SDS011;6025;51.368;6.788;2022-10-31T22:29:58;6.45;;;3.15;;
11931;SDS011;6025;51.368;6.788;2022-10-31T22:34:49;8.05;;;3.30;;
11931;SDS011;6025;51.368;6.788;2022-10-31T22:39:41;9.48;;;3.28;;
11931;SDS011;6025;51.368;6.788;2022-10-31T22:44:32;5.65;;;3.25;;
11931;SDS011;6025;51.368;6.788;2022-10-31T22:49:25;9.10;;;3.40;;
11931;SDS011;6025;51.368;6.788;2022-10-31T22:54:17;9.20;;;3.60;;
11931;SDS011;6025;51.368;6.788;2022-10-31T22:59:10;9.38;;;3.10;;
11931;SDS011;6025;51.368;6.788;2022-10-31T23:04:02;6.55;;;3.33;;
11931;SDS011;6025;51.368;6.788;2022-10-31T23:08:55;7.88;;;3.20;;
11931;SDS011;6025;51.368;6.788;2022-10-31T23:13:48;10.65;;;3.47;;
11931;SDS011;6025;51.368;6.788;2022-10-31T23:18:59;8.65;;;3.58;;
11931;SDS011;6025;51.368;6.788;2022-10-31T23:23:51;12.10;;;3.50;;
11931;SDS011;6025;51.368;6.788;2022-10-31T23:28:43;6.57;;;3.30;;
11931;SDS011;6025;51.368;6.788;2022-10-31T23:33:35;10.65;;;3.38;;
11931;SDS011;6025;51.368;6.788;2022-10-31T23:38:27;7.97;;;3.15;;
11931;SDS011;6025;51.368;6.788;2022-10-31T23:43:18;9.68;;;3.42;;
11931;SDS011;6025;51.368;6.788;2022-10-31T23:48:11;7.40;;;3.53;;
11931;SDS011;6025;51.368;6.788;2022-10-31T23:53:03;11.20;;;3.80;;
11931;SDS011;6025;51.368;6.788;2022-10-31T23:57:54;7.80;;;3.85;;
